createdAt,value
2022-08-23T00:00:17.015Z,98588.00
2022-08-23T00:02:49.493Z,98591.00
2022-08-23T00:05:20.427Z,98596.00
2022-08-23T00:07:51.356Z,98577.00
2022-08-23T00:10:22.596Z,98593.00
2022-08-23T00:12:53.666Z,98582.00
2022-08-23T00:15:25.264Z,98581.00
2022-08-23T00:17:56.424Z,98586.00
2022-08-23T00:20:27.503Z,98588.00
2022-08-23T00:22:58.516Z,98586.00
2022-08-23T00:25:29.422Z,98592.00
2022-08-23T00:28:00.684Z,98584.00
2022-08-23T00:30:31.923Z,98586.00
2022-08-23T00:33:04.768Z,98586.00
2022-08-23T00:35:35.699Z,98583.00
2022-08-23T00:38:33.026Z,98584.00
2022-08-23T00:40:57.533Z,98575.00
2022-08-23T00:43:55.992Z,98578.00
2022-08-23T00:47:05.079Z,98578.00
2022-08-23T00:49:38.202Z,98575.00
2022-08-23T00:52:40.464Z,98575.00
2022-08-23T00:55:12.375Z,98573.00
2022-08-23T00:57:43.896Z,98578.00
2022-08-23T01:00:18.808Z,98572.00
2022-08-23T01:02:51.984Z,98579.00
2022-08-23T01:05:32.071Z,98572.00
2022-08-23T01:08:03.557Z,98570.00
2022-08-23T01:10:52.642Z,98580.00
2022-08-23T01:13:38.044Z,98573.00
2022-08-23T01:16:23.023Z,98572.00
2022-08-23T01:18:55.168Z,98573.00
2022-08-23T01:22:05.687Z,98582.00
2022-08-23T01:25:06.264Z,98587.00
2022-08-23T01:27:30.501Z,98589.00
2022-08-23T01:30:08.093Z,98586.00
2022-08-23T01:32:48.633Z,98591.00
2022-08-23T01:37:57.857Z,98588.00
2022-08-23T01:40:29.288Z,98579.00
2022-08-23T01:43:01.980Z,98585.00
2022-08-23T01:45:34.558Z,98575.00
2022-08-23T01:48:05.926Z,98580.00
2022-08-23T01:53:09.961Z,98587.00
2022-08-23T01:55:43.265Z,98586.00
2022-08-23T01:58:14.429Z,98588.00
2022-08-23T02:00:45.319Z,98582.00
2022-08-23T02:03:17.154Z,98590.00
2022-08-23T02:05:48.132Z,98594.00
2022-08-23T02:08:37.770Z,98593.00
2022-08-23T02:11:18.046Z,98599.00
2022-08-23T02:13:53.250Z,98596.00
2022-08-23T02:16:27.603Z,98599.00
2022-08-23T02:19:02.421Z,98612.00
2022-08-23T02:21:35.392Z,98590.00
2022-08-23T02:24:19.918Z,98597.00
2022-08-23T02:26:57.127Z,98601.00
2022-08-23T02:29:31.402Z,98588.00
2022-08-23T02:32:04.116Z,98588.00
2022-08-23T02:37:24.547Z,98593.00
2022-08-23T02:39:55.599Z,98595.00
2022-08-23T02:42:26.625Z,98602.00
2022-08-23T02:44:57.592Z,98607.00
2022-08-23T02:47:28.663Z,98598.00
2022-08-23T02:49:59.614Z,98595.00
2022-08-23T02:52:31.165Z,98603.00
2022-08-23T02:55:02.465Z,98598.00
2022-08-23T02:57:33.628Z,98603.00
2022-08-23T03:00:07.330Z,98607.00
2022-08-23T03:02:39.442Z,98607.00
2022-08-23T03:05:12.375Z,98602.00
2022-08-23T03:07:44.334Z,98608.00
2022-08-23T03:10:16.437Z,98614.00
2022-08-23T03:12:47.458Z,98608.00
2022-08-23T03:15:18.516Z,98606.00
2022-08-23T03:17:49.939Z,98605.00
2022-08-23T03:20:21.123Z,98613.00
2022-08-23T03:22:54.688Z,98612.00
2022-08-23T03:25:26.563Z,98608.00
2022-08-23T03:27:58.276Z,98612.00
2022-08-23T03:30:29.306Z,98614.00
2022-08-23T03:33:01.916Z,98614.00
2022-08-23T03:35:32.840Z,98625.00
2022-08-23T03:38:03.834Z,98613.00
2022-08-23T03:40:35.151Z,98613.00
2022-08-23T03:43:06.219Z,98612.00
2022-08-23T03:45:37.827Z,98616.00
2022-08-23T03:48:08.838Z,98628.00
2022-08-23T03:50:39.864Z,98629.00
2022-08-23T03:53:12.321Z,98634.00
2022-08-23T03:55:44.597Z,98641.00
2022-08-23T03:58:15.594Z,98638.00
2022-08-23T04:00:46.480Z,98638.00
2022-08-23T04:03:17.613Z,98639.00
2022-08-23T04:05:48.464Z,98644.00
2022-08-23T04:08:27.065Z,98641.00
2022-08-23T04:11:05.051Z,98639.00
2022-08-23T04:13:36.570Z,98650.00
2022-08-23T04:16:09.037Z,98649.00
2022-08-23T04:18:40.590Z,98654.00
2022-08-23T04:21:17.571Z,98658.00
2022-08-23T04:23:48.898Z,98654.00
2022-08-23T04:26:20.892Z,98654.00
2022-08-23T04:28:51.845Z,98649.00
2022-08-23T04:31:26.531Z,98658.00
2022-08-23T04:33:57.429Z,98663.00
2022-08-23T04:36:35.185Z,98668.00
2022-08-23T04:39:07.089Z,98669.00
2022-08-23T04:41:56.467Z,98665.00
2022-08-23T04:44:27.482Z,98671.00
2022-08-23T04:46:58.477Z,98674.00
2022-08-23T04:49:29.570Z,98679.00
2022-08-23T04:52:00.546Z,98683.00
2022-08-23T04:54:31.613Z,98686.00
2022-08-23T04:57:03.028Z,98693.00
2022-08-23T04:59:34.029Z,98692.00
2022-08-23T05:02:05.455Z,98691.00
2022-08-23T05:04:36.569Z,98692.00
2022-08-23T05:07:08.696Z,98689.00
2022-08-23T05:09:39.558Z,98699.00
2022-08-23T05:12:10.595Z,98699.00
2022-08-23T05:14:41.487Z,98698.00
2022-08-23T05:17:15.288Z,98690.00
2022-08-23T05:19:46.828Z,98699.00
2022-08-23T05:22:19.318Z,98697.00
2022-08-23T05:24:50.216Z,98696.00
2022-08-23T05:27:21.106Z,98700.00
2022-08-23T05:29:54.368Z,98700.00
2022-08-23T05:32:26.062Z,98697.00
2022-08-23T05:34:57.910Z,98699.00
2022-08-23T05:37:28.916Z,98699.00
2022-08-23T05:39:59.874Z,98699.00
2022-08-23T05:42:30.801Z,98726.00
2022-08-23T05:45:01.660Z,98693.00
2022-08-23T05:47:36.952Z,98708.00
2022-08-23T05:50:09.242Z,98704.00
2022-08-23T05:52:40.454Z,98703.00
2022-08-23T05:55:11.351Z,98715.00
2022-08-23T05:57:42.405Z,98713.00
2022-08-23T06:00:15.496Z,98716.00
2022-08-23T06:02:48.502Z,98715.00
2022-08-23T06:05:19.713Z,98722.00
2022-08-23T06:07:51.147Z,98728.00
2022-08-23T06:10:22.212Z,98726.00
2022-08-23T06:12:53.074Z,98719.00
2022-08-23T06:15:23.936Z,98731.00
2022-08-23T06:17:54.785Z,98719.00
2022-08-23T06:20:25.902Z,98721.00
2022-08-23T06:22:56.942Z,98726.00
2022-08-23T06:25:28.688Z,98725.00
2022-08-23T06:28:01.524Z,98728.00
2022-08-23T06:30:37.010Z,98734.00
2022-08-23T06:33:12.833Z,98728.00
2022-08-23T06:35:43.923Z,98719.00
2022-08-23T06:38:15.130Z,98729.00
2022-08-23T06:40:46.073Z,98729.00
2022-08-23T06:43:18.580Z,98725.00
2022-08-23T06:45:54.966Z,98731.00
2022-08-23T06:48:29.959Z,98723.00
2022-08-23T06:51:00.821Z,98726.00
2022-08-23T06:53:33.346Z,98732.00
2022-08-23T06:56:05.148Z,98733.00
2022-08-23T06:58:36.049Z,98735.00
2022-08-23T07:01:43.996Z,98735.00
2022-08-23T07:04:15.407Z,98737.00
2022-08-23T07:06:47.271Z,98737.00
2022-08-23T07:09:19.218Z,98740.00
2022-08-23T07:11:52.170Z,98737.00
2022-08-23T07:14:24.553Z,98736.00
2022-08-23T07:17:01.317Z,98744.00
2022-08-23T07:19:35.468Z,98743.00
2022-08-23T07:22:07.690Z,98745.00
2022-08-23T07:24:38.593Z,98741.00
2022-08-23T07:27:10.119Z,98769.00
2022-08-23T07:29:41.194Z,98751.00
2022-08-23T07:32:12.429Z,98744.00
2022-08-23T07:34:43.958Z,98743.00
2022-08-23T07:37:16.641Z,98748.00
2022-08-23T07:39:47.606Z,98746.00
2022-08-23T07:42:23.026Z,98756.00
2022-08-23T07:44:54.896Z,98769.00
2022-08-23T07:47:28.437Z,98744.00
2022-08-23T07:49:59.290Z,98748.00
2022-08-23T07:52:30.311Z,98757.00
2022-08-23T07:55:01.333Z,98757.00
2022-08-23T07:57:32.202Z,98753.00
2022-08-23T08:00:03.842Z,98758.00
2022-08-23T08:02:34.907Z,98758.00
2022-08-23T08:05:06.760Z,98765.00
2022-08-23T08:07:38.051Z,98756.00
2022-08-23T08:10:09.350Z,98755.00
2022-08-23T08:12:40.318Z,98760.00
2022-08-23T08:15:11.496Z,98758.00
2022-08-23T08:17:42.358Z,98759.00
2022-08-23T08:20:13.280Z,98770.00
2022-08-23T08:22:48.522Z,98758.00
2022-08-23T08:25:21.515Z,98762.00
2022-08-23T08:27:52.385Z,98767.00
2022-08-23T08:30:23.284Z,98768.00
2022-08-23T08:32:54.228Z,98770.00
2022-08-23T08:35:25.077Z,98759.00
2022-08-23T08:37:56.392Z,98761.00
2022-08-23T08:40:34.619Z,98763.00
2022-08-23T08:43:29.849Z,98764.00
2022-08-23T08:46:42.644Z,98776.00
2022-08-23T08:49:53.872Z,98777.00
2022-08-23T08:52:52.067Z,98772.00
2022-08-23T08:55:30.408Z,98778.00
2022-08-23T08:58:02.697Z,98768.00
2022-08-23T09:00:38.746Z,98801.00
2022-08-23T09:03:22.455Z,98778.00
2022-08-23T09:06:01.860Z,98778.00
2022-08-23T09:09:09.465Z,98778.00
2022-08-23T09:12:20.987Z,98779.00
2022-08-23T09:15:07.103Z,98779.00
2022-08-23T09:17:53.032Z,98759.00
2022-08-23T09:20:32.934Z,98773.00
2022-08-23T09:23:15.978Z,98768.00
2022-08-23T09:26:03.866Z,98767.00
2022-08-23T09:28:37.138Z,98770.00
2022-08-23T09:31:08.573Z,98773.00
2022-08-23T09:33:45.972Z,98769.00
2022-08-23T09:36:30.790Z,98772.00
2022-08-23T09:39:31.289Z,98772.00
2022-08-23T09:42:02.670Z,98768.00
2022-08-23T09:44:43.506Z,98767.00
2022-08-23T09:47:17.385Z,98763.00
2022-08-23T09:49:48.599Z,98779.00
2022-08-23T09:52:34.498Z,98777.00
2022-08-23T09:55:12.772Z,98774.00
2022-08-23T09:57:48.156Z,98764.00
2022-08-23T10:00:32.482Z,98773.00
2022-08-23T10:03:27.411Z,98763.00
2022-08-23T10:06:01.187Z,98775.00
2022-08-23T10:08:42.885Z,98761.00
2022-08-23T10:11:21.594Z,98766.00
2022-08-23T10:13:52.976Z,98769.00
2022-08-23T10:17:20.964Z,98763.00
2022-08-23T10:20:18.944Z,98760.00
2022-08-23T10:23:04.748Z,98759.00
2022-08-23T10:26:13.697Z,98755.00
2022-08-23T10:29:40.987Z,98759.00
2022-08-23T10:32:44.647Z,98752.00
2022-08-23T10:35:54.956Z,98746.00
2022-08-23T10:38:46.059Z,98744.00
2022-08-23T10:42:06.387Z,98736.00
2022-08-23T10:45:04.261Z,98739.00
2022-08-23T10:47:42.378Z,98740.00
2022-08-23T10:50:20.631Z,98730.00
2022-08-23T10:52:57.958Z,98732.00
2022-08-23T10:55:54.597Z,98738.00
2022-08-23T10:58:29.268Z,98729.00
2022-08-23T11:01:03.032Z,98730.00
2022-08-23T11:04:01.582Z,98733.00
2022-08-23T11:06:35.379Z,98728.00
2022-08-23T11:09:19.937Z,98732.00
2022-08-23T11:12:07.346Z,98737.00
2022-08-23T11:14:55.952Z,98728.00
2022-08-23T11:17:35.269Z,98715.00
2022-08-23T11:20:11.778Z,98713.00
2022-08-23T11:22:58.094Z,98714.00
2022-08-23T11:25:28.981Z,98716.00
2022-08-23T11:28:23.824Z,98712.00
2022-08-23T11:31:15.772Z,98710.00
2022-08-23T11:33:49.155Z,98710.00
2022-08-23T11:36:24.715Z,98717.00
2022-08-23T11:38:55.821Z,98717.00
2022-08-23T11:41:34.879Z,98707.00
2022-08-23T11:44:06.289Z,98707.00
2022-08-23T11:46:54.517Z,98712.00
2022-08-23T11:50:22.576Z,98710.00
2022-08-23T11:53:29.124Z,98716.00
2022-08-23T11:56:11.626Z,98718.00
2022-08-23T11:59:08.873Z,98708.00
2022-08-23T12:01:42.039Z,98696.00
2022-08-23T12:04:42.082Z,98695.00
2022-08-23T12:07:13.611Z,98705.00
2022-08-23T12:09:55.940Z,98705.00
2022-08-23T12:12:37.611Z,98704.00
2022-08-23T12:15:13.277Z,98694.00
2022-08-23T12:17:44.139Z,98691.00
2022-08-23T12:20:30.593Z,98685.00
2022-08-23T12:23:17.351Z,98693.00
2022-08-23T12:26:11.205Z,98692.00
2022-08-23T12:28:48.092Z,98699.00
2022-08-23T12:31:39.929Z,98693.00
2022-08-23T12:34:37.355Z,98684.00
2022-08-23T12:37:36.887Z,98699.00
2022-08-23T12:40:16.113Z,98682.00
2022-08-23T12:42:47.526Z,98693.00
2022-08-23T12:45:23.601Z,98690.00
2022-08-23T12:48:02.506Z,98689.00
2022-08-23T12:50:41.281Z,98687.00
2022-08-23T12:53:17.126Z,98678.00
2022-08-23T12:55:52.480Z,98679.00
2022-08-23T12:58:33.236Z,98685.00
2022-08-23T13:01:18.208Z,98684.00
2022-08-23T13:03:55.706Z,98673.00
2022-08-23T13:06:32.538Z,98674.00
2022-08-23T13:09:08.387Z,98680.00
2022-08-23T13:11:40.337Z,98675.00
2022-08-23T13:14:31.267Z,98676.00
2022-08-23T13:17:28.400Z,98684.00
2022-08-23T13:20:02.353Z,98674.00
2022-08-23T13:22:36.149Z,98674.00
2022-08-23T13:25:35.755Z,98672.00
2022-08-23T13:28:26.295Z,98674.00
2022-08-23T13:31:02.804Z,98671.00
2022-08-23T13:33:34.739Z,98675.00
2022-08-23T13:36:13.815Z,98673.00
2022-08-23T13:38:45.247Z,98668.00
2022-08-23T13:41:38.999Z,98672.00
2022-08-23T13:44:11.454Z,98667.00
2022-08-23T13:46:47.603Z,98667.00
2022-08-23T13:49:23.188Z,98661.00
2022-08-23T13:52:11.940Z,98666.00
2022-08-23T13:54:53.060Z,98663.00
2022-08-23T13:57:26.459Z,98669.00
2022-08-23T13:59:59.466Z,98671.00
2022-08-23T14:02:30.350Z,98668.00
2022-08-23T14:05:02.336Z,98668.00
2022-08-23T14:07:33.757Z,98662.00
2022-08-23T14:10:05.763Z,98658.00
2022-08-23T14:12:37.024Z,98659.00
2022-08-23T14:15:08.756Z,98654.00
2022-08-23T14:17:47.466Z,98656.00
2022-08-23T14:20:46.629Z,98653.00
2022-08-23T14:23:12.127Z,98649.00
2022-08-23T14:25:44.051Z,98650.00
2022-08-23T14:28:14.990Z,98653.00
2022-08-23T14:30:46.146Z,98649.00
2022-08-23T14:33:17.132Z,98653.00
2022-08-23T14:35:49.217Z,98644.00
2022-08-23T14:38:20.538Z,98652.00
2022-08-23T14:40:58.887Z,98656.00
2022-08-23T14:43:30.853Z,98662.00
2022-08-23T14:46:02.661Z,98654.00
2022-08-23T14:48:33.814Z,98639.00
2022-08-23T14:51:05.394Z,98649.00
2022-08-23T14:53:37.919Z,98647.00
2022-08-23T14:56:20.976Z,98646.00
2022-08-23T14:58:52.577Z,98652.00
2022-08-23T15:01:24.426Z,98656.00
2022-08-23T15:03:55.468Z,98654.00
2022-08-23T15:06:26.420Z,98648.00
2022-08-23T15:08:57.530Z,98642.00
2022-08-23T15:14:19.578Z,98653.00
2022-08-23T15:16:50.600Z,98649.00
2022-08-23T15:19:22.118Z,98653.00
2022-08-23T15:21:53.058Z,98648.00
2022-08-23T15:24:24.026Z,98643.00
2022-08-23T15:26:59.649Z,98646.00
2022-08-23T15:29:30.699Z,98643.00
2022-08-23T15:32:01.686Z,98634.00
2022-08-23T15:34:33.258Z,98656.00
2022-08-23T15:37:06.453Z,98637.00
2022-08-23T15:39:38.218Z,98634.00
2022-08-23T15:42:09.355Z,98635.00
2022-08-23T15:44:40.313Z,98637.00
2022-08-23T15:47:28.290Z,98643.00
2022-08-23T15:50:00.317Z,98639.00
2022-08-23T15:52:31.318Z,98655.00
2022-08-23T15:55:02.263Z,98637.00
2022-08-23T15:57:47.959Z,98639.00
2022-08-23T16:00:22.821Z,98636.00
2022-08-23T16:03:19.094Z,98635.00
2022-08-23T16:05:49.314Z,98640.00
2022-08-23T16:08:31.569Z,98635.00
2022-08-23T16:11:05.077Z,98644.00
2022-08-23T16:13:36.439Z,98635.00
2022-08-23T16:16:22.541Z,98643.00
2022-08-23T16:18:55.294Z,98629.00
2022-08-23T16:21:29.591Z,98633.00
2022-08-23T16:24:01.411Z,98636.00
2022-08-23T16:26:37.324Z,98635.00
2022-08-23T16:29:13.468Z,98639.00
2022-08-23T16:31:46.730Z,98631.00
2022-08-23T16:34:20.369Z,98642.00
2022-08-23T16:36:57.871Z,98633.00
2022-08-23T16:39:29.706Z,98648.00
2022-08-23T16:42:04.298Z,98639.00
2022-08-23T16:44:38.210Z,98636.00
2022-08-23T16:47:10.889Z,98631.00
2022-08-23T16:49:43.194Z,98648.00
2022-08-23T16:52:14.569Z,98642.00
2022-08-23T16:54:45.598Z,98646.00
2022-08-23T16:57:17.664Z,98646.00
2022-08-23T16:59:49.371Z,98649.00
2022-08-23T17:02:32.471Z,98658.00
2022-08-23T17:05:06.421Z,98653.00
2022-08-23T17:07:37.886Z,98646.00
2022-08-23T17:10:11.980Z,98647.00
2022-08-23T17:12:47.053Z,98645.00
2022-08-23T17:15:26.008Z,98644.00
2022-08-23T17:17:57.876Z,98645.00
2022-08-23T17:20:33.774Z,98656.00
2022-08-23T17:23:05.818Z,98653.00
2022-08-23T17:25:38.290Z,98656.00
2022-08-23T17:28:09.226Z,98671.00
2022-08-23T17:30:40.397Z,98677.00
2022-08-23T17:33:11.312Z,98666.00
2022-08-23T17:35:43.856Z,98662.00
2022-08-23T17:38:15.567Z,98660.00
2022-08-23T17:40:47.243Z,98677.00
2022-08-23T17:43:18.518Z,98670.00
2022-08-23T17:45:57.376Z,98678.00
2022-08-23T17:48:28.827Z,98674.00
2022-08-23T17:51:00.937Z,98688.00
2022-08-23T17:53:32.074Z,98676.00
2022-08-23T17:56:06.437Z,98690.00
2022-08-23T17:58:41.405Z,98678.00
2022-08-23T18:01:12.541Z,98685.00
2022-08-23T18:03:43.600Z,98693.00
2022-08-23T18:06:17.176Z,98689.00
2022-08-23T18:08:48.976Z,98693.00
2022-08-23T18:11:19.882Z,98700.00
2022-08-23T18:13:51.014Z,98693.00
2022-08-23T18:16:22.193Z,98712.00
2022-08-23T18:18:53.159Z,98701.00
2022-08-23T18:21:24.838Z,98707.00
2022-08-23T18:23:59.217Z,98703.00
2022-08-23T18:26:48.691Z,98709.00
2022-08-23T18:29:20.792Z,98713.00
2022-08-23T18:31:54.826Z,98712.00
2022-08-23T18:34:26.555Z,98717.00
2022-08-23T18:36:59.273Z,98725.00
2022-08-23T18:39:32.302Z,98724.00
2022-08-23T18:42:06.170Z,98726.00
2022-08-23T18:44:37.033Z,98728.00
2022-08-23T18:47:08.273Z,98725.00
2022-08-23T18:49:39.290Z,98726.00
2022-08-23T18:52:10.150Z,98732.00
2022-08-23T18:54:41.061Z,98736.00
2022-08-23T18:57:16.065Z,98748.00
2022-08-23T18:59:47.163Z,98738.00
2022-08-23T19:02:18.347Z,98758.00
2022-08-23T19:04:49.398Z,98760.00
2022-08-23T19:07:20.361Z,98754.00
2022-08-23T19:09:51.223Z,98753.00
2022-08-23T19:12:22.124Z,98758.00
2022-08-23T19:14:53.043Z,98761.00
2022-08-23T19:17:24.337Z,98772.00
2022-08-23T19:19:55.245Z,98763.00
2022-08-23T19:22:26.324Z,98781.00
2022-08-23T19:24:59.536Z,98780.00
2022-08-23T19:27:30.698Z,98786.00
2022-08-23T19:30:01.715Z,98777.00
2022-08-23T19:32:34.431Z,98783.00
2022-08-23T19:35:07.373Z,98791.00
2022-08-23T19:37:38.573Z,98782.00
2022-08-23T19:40:10.525Z,98783.00
2022-08-23T19:42:41.572Z,98778.00
2022-08-23T19:45:13.141Z,98776.00
2022-08-23T19:47:44.141Z,98780.00
2022-08-23T19:50:15.437Z,98785.00
2022-08-23T19:52:55.002Z,98786.00
2022-08-23T19:55:27.443Z,98788.00
2022-08-23T19:57:58.891Z,98788.00
2022-08-23T20:00:31.322Z,98800.00
2022-08-23T20:03:02.922Z,98819.00
2022-08-23T20:05:34.415Z,98816.00
2022-08-23T20:08:05.332Z,98809.00
2022-08-23T20:10:36.330Z,98814.00
2022-08-23T20:13:07.245Z,98816.00
2022-08-23T20:15:41.260Z,98815.00
2022-08-23T20:18:12.103Z,98826.00
2022-08-23T20:20:43.173Z,98827.00
2022-08-23T20:23:32.816Z,98825.00
2022-08-23T20:26:04.076Z,98829.00
2022-08-23T20:28:35.067Z,98829.00
2022-08-23T20:31:17.186Z,98825.00
2022-08-23T20:33:49.050Z,98836.00
2022-08-23T20:36:20.529Z,98831.00
2022-08-23T20:38:51.500Z,98831.00
2022-08-23T20:41:22.501Z,98838.00
2022-08-23T20:43:53.901Z,98834.00
2022-08-23T20:46:25.307Z,98837.00
2022-08-23T20:48:59.472Z,98832.00
2022-08-23T20:51:30.737Z,98835.00
2022-08-23T20:54:09.185Z,98835.00
2022-08-23T20:56:40.752Z,98838.00
2022-08-23T20:59:13.032Z,98836.00
2022-08-23T21:01:44.502Z,98846.00
2022-08-23T21:04:15.458Z,98845.00
2022-08-23T21:06:51.882Z,98847.00
2022-08-23T21:09:29.130Z,98860.00
2022-08-23T21:12:00.442Z,98854.00
2022-08-23T21:14:31.588Z,98852.00
2022-08-23T21:17:02.432Z,98857.00
2022-08-23T21:19:33.344Z,98859.00
2022-08-23T21:22:04.265Z,98849.00
2022-08-23T21:24:35.333Z,98853.00
2022-08-23T21:27:09.405Z,98853.00
2022-08-23T21:29:40.897Z,98852.00
2022-08-23T21:32:11.816Z,98848.00
2022-08-23T21:34:42.712Z,98849.00
2022-08-23T21:37:13.623Z,98860.00
2022-08-23T21:39:44.600Z,98853.00
2022-08-23T21:42:23.085Z,98852.00
2022-08-23T21:44:54.576Z,98854.00
2022-08-23T21:47:26.083Z,98860.00
2022-08-23T21:49:56.975Z,98862.00
2022-08-23T21:52:27.868Z,98856.00
2022-08-23T21:54:58.855Z,98848.00
2022-08-23T21:57:29.730Z,98851.00
2022-08-23T22:00:03.121Z,98851.00
2022-08-23T22:02:34.123Z,98857.00
2022-08-23T22:05:06.964Z,98851.00
2022-08-23T22:07:38.950Z,98849.00
2022-08-23T22:10:10.797Z,98847.00
2022-08-23T22:12:42.043Z,98845.00
2022-08-23T22:15:13.583Z,98847.00
2022-08-23T22:17:44.434Z,98848.00
2022-08-23T22:20:15.488Z,98844.00
2022-08-23T22:22:46.365Z,98839.00
2022-08-23T22:25:17.625Z,98840.00
2022-08-23T22:27:48.589Z,98843.00
2022-08-23T22:30:20.522Z,98848.00
2022-08-23T22:32:51.499Z,98842.00
2022-08-23T22:35:22.457Z,98842.00
2022-08-23T22:38:12.669Z,98842.00
2022-08-23T22:40:50.571Z,98840.00
2022-08-23T22:43:21.538Z,98840.00
2022-08-23T22:46:00.460Z,98841.00
2022-08-23T22:48:36.917Z,98844.00
2022-08-23T22:51:13.765Z,98837.00
2022-08-23T22:53:48.760Z,98839.00
2022-08-23T22:56:27.027Z,98835.00
2022-08-23T22:58:59.193Z,98832.00
2022-08-23T23:01:37.687Z,98835.00
2022-08-23T23:04:11.258Z,98831.00
2022-08-23T23:06:42.791Z,98830.00
2022-08-23T23:09:14.108Z,98830.00
2022-08-23T23:11:46.162Z,98828.00
2022-08-23T23:14:20.199Z,98827.00
2022-08-23T23:16:53.113Z,98822.00
2022-08-23T23:19:43.026Z,98823.00
2022-08-23T23:22:16.746Z,98825.00
2022-08-23T23:24:47.652Z,98822.00
2022-08-23T23:27:18.572Z,98826.00
2022-08-23T23:29:49.466Z,98833.00
2022-08-23T23:32:21.069Z,98832.00
2022-08-23T23:34:53.497Z,98833.00
2022-08-23T23:37:24.433Z,98833.00
2022-08-23T23:39:55.528Z,98834.00
2022-08-23T23:42:26.788Z,98833.00
2022-08-23T23:44:57.752Z,98826.00
2022-08-23T23:47:28.997Z,98826.00
2022-08-23T23:49:59.959Z,98832.00
2022-08-23T23:52:30.986Z,98828.00
2022-08-23T23:55:05.236Z,98838.00
2022-08-23T23:57:36.169Z,98840.00
